Ashland, Missouri
Current Conditions -  °F | °C
As of 5:54 AM on Monday 22 Dec 2014 (Local Time) from KCOU Reporting Station
Light Rain Light Rain  
Wind Chill:   Ceiling: 2900
Heat Index:   Visibility: 7mi
Dew Point:   Wind: 8mph
Humidity: 93%   Direction: 120°ESE
Pressure: 29.7"   Gusts: NA
Location:  38.77°N, 92.26°W
Report Text: KCOU 221154Z AUTO 12007KT 7SM -RA SCT020 OVC029 04/03 A2970 RMK AO2 SLP060 P0001 60003 70003 T00390028 10056 20039 56026
Loading
Personal Weather Stations






























Interactive Weather Map New forecast layout! Learn more

10-Day Weather Forecast

Advertisements
Track Severe Weather on mobile